Time;durP1;ratioP1;P1;durP2;ratioP2;P2;SDS_P1;SDS_P2;PMS_P1;PMS_P2;Temp;Humidity;BMP_temperature;BMP_pressure;BME280_temperature;BME280_humidity;BME280_pressure;Samples;Min_cycle;Max_cycle;Signal;HPM_P1;HPM_P2
2022/05/26 00:02:03;;;;;;;1.50;1.30;;;10.90;99.90;;;;;;5056251;28;20032;-54
2022/05/26 00:05:28;;;;;;;6.55;1.40;;;10.80;99.90;;;;;;5052558;28;20072;-52
2022/05/26 00:08:52;;;;;;;1.73;1.30;;;10.60;99.90;;;;;;5043635;28;20424;-53
2022/05/26 00:12:19;;;;;;;2.10;1.42;;;10.40;99.90;;;;;;5045015;28;20045;-52
2022/05/26 00:14:46;;;;;;;2.10;1.52;;;10.30;99.90;;;;;;5056821;28;20695;-53
2022/05/26 00:17:12;;;;;;;1.25;1.15;;;10.10;99.90;;;;;;5068595;28;20037;-52
2022/05/26 00:19:37;;;;;;;1.50;1.23;;;10.00;99.90;;;;;;5049704;28;20029;-55
2022/05/26 00:22:03;;;;;;;2.30;1.50;;;9.90;99.90;;;;;;5068707;28;20399;-53
2022/05/26 00:24:29;;;;;;;1.85;1.40;;;9.80;99.90;;;;;;5048835;28;20036;-53
2022/05/26 00:26:54;;;;;;;1.52;1.42;;;9.80;99.90;;;;;;5070530;28;20037;-52
2022/05/26 00:29:20;;;;;;;3.22;1.80;;;9.70;99.90;;;;;;5049556;28;20751;-52
2022/05/26 00:31:46;;;;;;;1.42;1.23;;;9.60;99.90;;;;;;5070097;28;20078;-49
2022/05/26 00:34:11;;;;;;;2.67;1.80;;;9.60;99.90;;;;;;5049570;28;20029;-51
2022/05/26 00:36:44;;;;;;;1.77;1.52;;;9.50;99.90;;;;;;5051633;28;20440;-51
2022/05/26 00:39:13;;;;;;;1.42;1.33;;;9.50;99.90;;;;;;5031116;28;20022;-50
2022/05/26 00:41:45;;;;;;;6.22;1.45;;;9.50;99.90;;;;;;5051795;28;20035;-55
2022/05/26 00:44:11;;;;;;;2.28;1.67;;;9.50;99.90;;;;;;5030987;28;20029;-52
2022/05/26 00:46:55;;;;;;;2.03;1.58;;;9.60;99.90;;;;;;5051119;28;20048;-54
2022/05/26 00:49:39;;;;;;;2.72;1.40;;;9.70;99.90;;;;;;5030915;28;20036;-51
2022/05/26 00:52:09;;;;;;;1.58;1.45;;;9.70;99.90;;;;;;5030931;28;20072;-54
2022/05/26 00:54:34;;;;;;;4.00;1.40;;;9.80;99.90;;;;;;5070188;28;20043;-54
2022/05/26 00:57:08;;;;;;;2.88;1.50;;;9.90;99.90;;;;;;5049020;28;20634;-54
2022/05/26 01:00:26;;;;;;;2.00;1.15;;;10.00;99.90;;;;;;5066031;28;20056;-52
2022/05/26 01:03:51;;;;;;;2.00;1.08;;;10.10;99.90;;;;;;5066693;28;20085;-51
2022/05/26 01:07:31;;;;;;;2.83;1.60;;;10.20;99.90;;;;;;5044867;28;20396;-53
2022/05/26 01:10:57;;;;;;;2.08;1.48;;;10.30;99.90;;;;;;5058936;28;20033;-50
2022/05/26 01:14:22;;;;;;;0.85;0.85;;;10.30;99.90;;;;;;5058661;28;20052;-49
2022/05/26 01:18:00;;;;;;;1.30;1.20;;;10.40;99.90;;;;;;5063251;28;20033;-53
2022/05/26 01:21:31;;;;;;;3.40;1.30;;;10.40;99.90;;;;;;5047240;28;20497;-53
2022/05/26 01:24:55;;;;;;;2.08;1.08;;;10.50;99.90;;;;;;5058501;28;20532;-51
2022/05/26 01:28:12;;;;;;;2.53;1.17;;;10.60;99.90;;;;;;5038167;28;20136;-51
2022/05/26 01:30:58;;;;;;;2.45;1.00;;;10.70;99.90;;;;;;5057768;28;20412;-54
2022/05/26 01:34:54;;;;;;;1.52;1.30;;;10.80;99.90;;;;;;5046963;28;20033;-51
2022/05/26 01:38:36;;;;;;;1.40;0.98;;;10.90;99.90;;;;;;5054730;28;20040;-50
2022/05/26 01:41:40;;;;;;;1.17;1.00;;;11.10;99.90;;;;;;5062106;28;20036;-50
2022/05/26 01:44:43;;;;;;;1.40;1.25;;;11.20;99.90;;;;;;5029522;28;20104;-52
2022/05/26 01:48:30;;;;;;;3.00;1.30;;;11.30;99.90;;;;;;5047496;28;20044;-53
2022/05/26 01:51:35;;;;;;;1.10;1.00;;;11.40;99.90;;;;;;5065626;28;20072;-51
2022/05/26 01:54:44;;;;;;;2.45;1.10;;;11.50;99.90;;;;;;5057739;28;20046;-54
2022/05/26 01:58:18;;;;;;;3.38;1.05;;;11.50;99.90;;;;;;5047165;28;20036;-53
2022/05/26 02:01:46;;;;;;;1.50;1.17;;;11.50;99.90;;;;;;5058600;28;20029;-53
2022/05/26 02:05:15;;;;;;;1.38;1.05;;;11.60;99.90;;;;;;5061529;28;20048;-50
2022/05/26 02:08:23;;;;;;;;;;;11.60;99.90;;;;;;5043213;28;20088;-50
2022/05/26 02:11:49;;;;;;;1.10;0.95;;;11.60;99.90;;;;;;5057499;28;19913;-53
2022/05/26 02:14:45;;;;;;;1.08;0.95;;;11.70;98.50;;;;;;5063448;28;20090;-53
2022/05/26 02:17:26;;;;;;;1.58;0.77;;;11.90;96.80;;;;;;5029247;28;20052;-48
2022/05/26 02:20:14;;;;;;;1.45;0.90;;;11.90;95.90;;;;;;5029244;28;20041;-49
2022/05/26 02:23:13;;;;;;;3.50;0.85;;;11.90;95.70;;;;;;5029337;28;20041;-55
2022/05/26 02:25:39;;;;;;;0.73;0.73;;;12.00;95.40;;;;;;5055514;28;20072;-52
2022/05/26 02:28:05;;;;;;;1.13;1.02;;;12.10;94.40;;;;;;5047713;28;20056;-55
2022/05/26 02:30:36;;;;;;;2.30;0.95;;;12.10;94.60;;;;;;5048821;28;20021;-55
2022/05/26 02:33:04;;;;;;;1.67;0.80;;;12.10;94.20;;;;;;5032585;28;20045;-51
2022/05/26 02:35:33;;;;;;;2.85;1.30;;;12.20;93.80;;;;;;5048708;28;20082;-55
2022/05/26 02:38:03;;;;;;;1.00;0.90;;;12.20;93.00;;;;;;5061498;28;20059;-55
2022/05/26 02:41:08;;;;;;;1.35;0.80;;;12.30;91.80;;;;;;5048679;28;20075;-49
2022/05/26 02:44:33;;;;;;;0.68;0.65;;;12.40;90.80;;;;;;5042827;28;20033;-55
2022/05/26 02:48:11;;;;;;;0.82;0.82;;;12.50;88.40;;;;;;5028723;28;20080;-53
2022/05/26 02:51:34;;;;;;;1.00;0.82;;;12.60;87.40;;;;;;5059421;28;20118;-53
2022/05/26 02:55:06;;;;;;;1.30;0.93;;;12.70;84.70;;;;;;5042907;28;20094;-51
2022/05/26 02:58:25;;;;;;;1.40;0.75;;;12.70;84.20;;;;;;5059306;28;20041;-51
2022/05/26 03:01:36;;;;;;;1.27;0.80;;;12.80;82.60;;;;;;5064163;28;20464;-53
2022/05/26 03:04:45;;;;;;;0.90;0.63;;;12.80;82.30;;;;;;5043097;28;20089;-54
2022/05/26 03:08:11;;;;;;;2.40;0.77;;;12.90;82.00;;;;;;5053671;28;20039;-52
2022/05/26 03:11:35;;;;;;;0.98;0.88;;;12.90;80.40;;;;;;5062486;28;20045;-52
2022/05/26 03:15:01;;;;;;;2.13;0.90;;;12.90;77.60;;;;;;5042706;28;20041;-52
2022/05/26 03:18:26;;;;;;;3.58;0.82;;;13.00;77.50;;;;;;5059227;28;20392;-49
2022/05/26 03:21:52;;;;;;;0.98;0.70;;;13.10;76.40;;;;;;5038643;28;20048;-52
2022/05/26 03:25:17;;;;;;;0.98;0.60;;;13.20;75.90;;;;;;5055325;28;20036;-53
2022/05/26 03:28:42;;;;;;;3.05;0.85;;;13.20;75.80;;;;;;5064463;28;20102;-52
2022/05/26 03:32:08;;;;;;;1.25;0.60;;;13.30;68.70;;;;;;5040437;28;20033;-50
2022/05/26 03:42:21;;;;;;;1.30;0.80;;;13.60;69.10;;;;;;5042511;28;20108;-53
2022/05/26 03:45:47;;;;;;;0.90;0.75;;;13.70;69.40;;;;;;5054308;28;20094;-52
2022/05/26 03:49:12;;;;;;;1.98;0.70;;;13.80;64.60;;;;;;5028009;28;20048;-54
2022/05/26 03:52:38;;;;;;;2.58;0.80;;;13.90;66.70;;;;;;5044444;28;20041;-53
2022/05/26 03:56:03;;;;;;;0.90;0.80;;;13.90;65.10;;;;;;5049480;28;20029;-56
2022/05/26 03:59:28;;;;;;;0.57;0.52;;;14.10;64.40;;;;;;5031160;28;20030;-50
2022/05/26 04:02:54;;;;;;;1.95;0.63;;;14.20;62.70;;;;;;5067866;28;20041;-53
2022/05/26 04:06:19;;;;;;;4.78;0.98;;;14.30;61.30;;;;;;5057979;28;20032;-53
2022/05/26 04:09:44;;;;;;;0.93;0.60;;;14.40;59.90;;;;;;5067751;28;20045;-53
2022/05/26 04:13:10;;;;;;;0.93;0.50;;;14.60;57.80;;;;;;5056481;28;20051;-55
2022/05/26 04:16:35;;;;;;;1.98;0.73;;;14.80;57.90;;;;;;5051030;28;20454;-51
2022/05/26 04:20:00;;;;;;;1.45;0.80;;;14.90;55.00;;;;;;5063877;28;20037;-53
2022/05/26 04:23:26;;;;;;;1.20;0.60;;;15.00;55.30;;;;;;5068230;28;20045;-52
2022/05/26 04:26:51;;;;;;;1.17;0.73;;;15.10;54.60;;;;;;5046402;28;20052;-49
2022/05/26 04:30:17;;;;;;;2.38;0.68;;;15.30;49.50;;;;;;5057933;28;20037;-51
2022/05/26 04:33:42;;;;;;;1.65;0.65;;;15.50;53.00;;;;;;5031159;28;20049;-52
2022/05/26 04:37:07;;;;;;;1.38;0.80;;;15.70;50.50;;;;;;5066679;28;20036;-54
2022/05/26 04:40:33;;;;;;;1.90;0.75;;;15.90;50.50;;;;;;5059068;28;20137;-54
2022/05/26 04:43:58;;;;;;;1.83;0.73;;;16.20;50.40;;;;;;5031015;28;20048;-52
2022/05/26 04:47:23;;;;;;;0.60;0.60;;;17.30;43.70;;;;;;5067198;28;20377;-54
2022/05/26 04:49:51;;;;;;;1.50;1.00;;;17.50;38.00;;;;;;5034936;28;20036;-59
2022/05/26 04:52:19;;;;;;;1.10;0.80;;;17.70;43.30;;;;;;5050621;28;20045;-58
2022/05/26 04:54:45;;;;;;;1.17;0.73;;;17.70;41.80;;;;;;5063284;28;20033;-58
2022/05/26 04:57:12;;;;;;;1.70;0.88;;;17.80;41.80;;;;;;5050803;28;20029;-59
2022/05/26 04:59:39;;;;;;;0.95;0.57;;;18.10;40.20;;;;;;5056949;28;20495;-58
2022/05/26 05:02:44;;;;;;;0.68;0.65;;;18.30;39.90;;;;;;5050581;28;20695;-59
2022/05/26 05:06:10;;;;;;;1.30;0.95;;;18.50;32.50;;;;;;5045753;28;20033;-59
2022/05/26 05:09:35;;;;;;;0.57;0.57;;;18.80;32.40;;;;;;5058927;28;20040;-59
2022/05/26 05:12:23;;;;;;;2.40;0.85;;;19.40;31.90;;;;;;5058941;28;20075;-59
2022/05/26 05:14:53;;;;;;;1.77;0.60;;;19.90;34.60;;;;;;5070485;28;20031;-59
2022/05/26 05:17:20;;;;;;;0.95;0.80;;;20.80;30.80;;;;;;5050084;28;20025;-59
2022/05/26 05:19:48;;;;;;;1.52;0.90;;;21.50;29.00;;;;;;5068027;28;20027;-57
2022/05/26 05:22:34;;;;;;;2.25;1.00;;;23.00;24.30;;;;;;5050308;28;20035;-58
2022/05/26 05:25:13;;;;;;;3.42;0.90;;;23.70;21.00;;;;;;5037509;28;20049;-59
2022/05/26 05:27:56;;;;;;;4.25;1.30;;;25.70;19.10;;;;;;5065921;28;20040;-59
2022/05/26 05:30:45;;;;;;;0.70;0.60;;;27.50;13.70;;;;;;5050031;28;20032;-59
2022/05/26 05:33:16;;;;;;;1.95;0.90;;;29.20;13.40;;;;;;5030918;28;20052;-59
2022/05/26 05:35:46;;;;;;;3.25;1.00;;;31.20;11.20;;;;;;5050069;28;20025;-59
2022/05/26 05:38:12;;;;;;;1.58;0.98;;;31.10;11.30;;;;;;5060938;28;20029;-59
2022/05/26 05:40:37;;;;;;;4.13;0.90;;;32.40;7.50;;;;;;5049719;28;20032;-59
2022/05/26 05:43:04;;;;;;;1.23;0.60;;;33.30;7.80;;;;;;5061410;28;20374;-59
2022/05/26 05:45:30;;;;;;;2.67;0.60;;;34.30;7.00;;;;;;5049691;28;20045;-60
2022/05/26 05:47:56;;;;;;;1.45;0.70;;;35.00;5.70;;;;;;5062387;28;20029;-60
2022/05/26 05:50:21;;;;;;;1.10;0.77;;;35.40;4.80;;;;;;5049688;28;20488;-59
2022/05/26 05:52:47;;;;;;;3.90;1.20;;;34.40;1.00;;;;;;5063123;28;20044;-59
2022/05/26 05:55:13;;;;;;;0.88;0.60;;;32.50;6.20;;;;;;5049671;28;20564;-59
2022/05/26 05:57:39;;;;;;;2.42;0.88;;;33.30;5.00;;;;;;5064529;28;20031;-59
2022/05/26 06:00:44;;;;;;;2.00;1.00;;;33.30;4.10;;;;;;5049627;28;20077;-59
2022/05/26 06:04:12;;;;;;;0.80;0.60;;;33.60;1.70;;;;;;5036844;28;20120;-59
2022/05/26 06:07:40;;;;;;;0.98;0.60;;;35.00;1.00;;;;;;5058044;28;20102;-59
2022/05/26 06:11:03;;;;;;;0.73;0.70;;;36.10;1.00;;;;;;5057446;28;20032;-60
2022/05/26 06:13:49;;;;;;;0.80;0.50;;;36.80;1.00;;;;;;5043566;28;20049;-59
2022/05/26 06:16:14;;;;;;;2.63;0.80;;;37.30;1.00;;;;;;5068471;28;20032;-59
2022/05/26 06:18:40;;;;;;;2.75;0.75;;;37.60;1.00;;;;;;5047800;28;20714;-59
2022/05/26 06:21:06;;;;;;;2.15;0.70;;;35.20;1.00;;;;;;5067767;28;20031;-59
2022/05/26 06:23:32;;;;;;;1.00;0.60;;;32.70;1.20;;;;;;5057094;28;20412;-59
2022/05/26 06:25:59;;;;;;;1.52;1.00;;;30.40;3.10;;;;;;5049365;28;20145;-59
2022/05/26 06:31:10;;;;;;;0.83;0.70;;;27.00;7.60;;;;;;5036033;28;20092;-59
2022/05/26 06:39:06;;;;;;;1.67;0.90;;;25.50;10.10;;;;;;5053865;28;20523;-58
2022/05/26 06:44:17;;;;;;;2.30;1.00;;;23.60;13.00;;;;;;5042519;28;20095;-58
2022/05/26 06:46:42;;;;;;;2.13;1.00;;;22.80;14.60;;;;;;5036665;28;20095;-58
2022/05/26 06:49:08;;;;;;;1.80;0.77;;;22.10;15.70;;;;;;5065512;28;20029;-59
2022/05/26 06:51:39;;;;;;;2.28;0.90;;;21.50;17.00;;;;;;5029416;28;20045;-58
2022/05/26 06:54:05;;;;;;;3.35;1.00;;;21.10;18.30;;;;;;5051915;28;20037;-58
2022/05/26 06:56:31;;;;;;;5.53;0.85;;;20.80;19.20;;;;;;5041189;28;20034;-58
2022/05/26 06:58:56;;;;;;;1.42;0.90;;;20.70;19.40;;;;;;5065141;28;20035;-54
2022/05/26 07:02:02;;;;;;;1.48;0.88;;;20.70;19.50;;;;;;5050984;28;20041;-51
2022/05/26 07:05:27;;;;;;;3.08;1.10;;;20.60;21.20;;;;;;5048699;28;20036;-55
2022/05/26 07:08:53;;;;;;;7.25;1.55;;;20.30;22.30;;;;;;5042152;28;20053;-53
2022/05/26 07:12:18;;;;;;;2.03;1.48;;;20.10;24.40;;;;;;5034969;28;20041;-52
2022/05/26 07:14:47;;;;;;;4.30;1.33;;;19.80;25.80;;;;;;5045818;28;20057;-54
2022/05/26 07:17:53;;;;;;;1.77;1.05;;;19.50;23.90;;;;;;5064613;28;20063;-55
2022/05/26 07:21:18;;;;;;;3.50;1.23;;;19.30;27.10;;;;;;5025999;28;20123;-51
2022/05/26 07:24:45;;;;;;;2.03;1.20;;;19.10;27.80;;;;;;5038573;28;20408;-54
2022/05/26 07:28:09;;;;;;;4.20;1.27;;;19.00;33.20;;;;;;5050777;28;20048;-53
2022/05/26 07:31:34;;;;;;;1.80;1.20;;;18.90;35.70;;;;;;5059130;28;20131;-54
2022/05/26 07:34:59;;;;;;;1.75;1.30;;;18.80;39.20;;;;;;5029600;28;20409;-54
2022/05/26 07:41:49;;;;;;;2.50;1.02;;;18.30;43.50;;;;;;5053762;28;20535;-55
2022/05/26 07:45:14;;;;;;;5.75;1.98;;;18.00;52.50;;;;;;5038149;28;20059;-55
2022/05/26 07:48:40;;;;;;;2.85;1.58;;;17.70;64.20;;;;;;5045895;28;20115;-50
2022/05/26 07:52:05;;;;;;;2.85;1.95;;;17.40;78.30;;;;;;5065444;28;20040;-52
2022/05/26 07:55:30;;;;;;;2.95;1.67;;;17.20;75.60;;;;;;5030726;28;20037;-55
2022/05/26 07:58:56;;;;;;;3.53;2.10;;;17.20;86.80;;;;;;5063938;28;20036;-52
2022/05/26 08:02:21;;;;;;;2.95;1.80;;;17.10;80.60;;;;;;5057060;28;20025;-51
2022/05/26 08:05:47;;;;;;;2.70;1.77;;;17.20;89.40;;;;;;5031527;28;20072;-48
2022/05/26 08:09:12;;;;;;;2.58;2.08;;;17.10;82.70;;;;;;5063260;28;20523;-51
2022/05/26 08:12:37;;;;;;;7.72;3.28;;;17.00;82.30;;;;;;5063583;28;20049;-51
2022/05/26 08:16:05;;;;;;;8.15;4.28;;;17.00;79.20;;;;;;5031343;28;20091;-53
2022/05/26 08:19:28;;;;;;;4.55;2.92;;;17.30;79.70;;;;;;5059369;28;20033;-54
2022/05/26 08:22:54;;;;;;;2.78;2.10;;;17.60;76.10;;;;;;5049609;28;20044;-48
2022/05/26 08:26:19;;;;;;;3.40;2.20;;;17.80;75.80;;;;;;5059646;28;20051;-51
2022/05/26 08:29:44;;;;;;;3.88;2.20;;;18.10;78.10;;;;;;5051136;28;20033;-47
2022/05/26 08:33:13;;;;;;;3.17;1.92;;;18.50;70.30;;;;;;5042854;28;20081;-49
2022/05/26 08:36:20;;;;;;;;;;;19.30;68.50;;;;;;5058798;28;20037;-51
2022/05/26 08:39:44;;;;;;;3.42;1.73;;;19.60;66.90;;;;;;5049107;28;20364;-52
2022/05/26 08:43:09;;;;;;;4.32;1.90;;;20.50;55.70;;;;;;5065717;28;20040;-50
2022/05/26 08:46:34;;;;;;;3.70;1.70;;;21.50;47.40;;;;;;5028591;28;20041;-49
2022/05/26 08:49:40;;;;;;;4.80;1.80;;;22.10;40.30;;;;;;5053660;28;20119;-48
2022/05/26 08:53:05;;;;;;;2.13;1.20;;;23.00;36.40;;;;;;5052941;28;20077;-53
2022/05/26 08:56:30;;;;;;;2.67;1.25;;;23.40;32.00;;;;;;5041081;28;20603;-53
2022/05/26 08:59:56;;;;;;;2.05;1.23;;;24.90;28.10;;;;;;5045042;28;20041;-54
2022/05/26 09:03:21;;;;;;;4.35;1.02;;;26.70;21.60;;;;;;5046991;28;20056;-53
2022/05/26 09:13:38;;;;;;;0.95;0.65;;;30.70;12.00;;;;;;5050864;28;20056;-54
2022/05/26 09:17:03;;;;;;;1.90;0.95;;;30.50;13.50;;;;;;5058433;28;20036;-51
2022/05/26 09:20:29;;;;;;;2.22;0.70;;;31.40;7.40;;;;;;5053298;28;20036;-50
2022/05/26 09:23:54;;;;;;;1.08;0.60;;;31.70;4.90;;;;;;5045038;28;20771;-54
2022/05/26 09:27:20;;;;;;;1.45;0.60;;;32.40;8.90;;;;;;5061196;28;20064;-52
2022/05/26 09:30:14;;;;;;;1.63;0.95;;;33.40;2.90;;;;;;5034822;28;20052;-55
2022/05/26 09:33:40;;;;;;;1.58;0.68;;;33.40;5.20;;;;;;5044064;28;20132;-51
2022/05/26 09:37:08;;;;;;;1.13;0.70;;;32.30;3.20;;;;;;5055097;28;20036;-49
2022/05/26 09:40:33;;;;;;;2.88;0.75;;;31.40;6.60;;;;;;5035807;28;20124;-56
2022/05/26 09:43:59;;;;;;;0.80;0.68;;;32.20;5.40;;;;;;5040537;28;20508;-54
2022/05/26 09:47:24;;;;;;;2.42;0.80;;;33.50;1.00;;;;;;5060846;28;20121;-51
2022/05/26 09:50:32;;;;;;;0.68;0.50;;;32.60;2.50;;;;;;5040050;28;20044;-50
2022/05/26 09:54:07;;;;;;;1.50;0.80;;;31.60;2.30;;;;;;5034989;28;20350;-51
2022/05/26 09:57:38;;;;;;;1.42;0.70;;;30.80;2.20;;;;;;5025196;28;20552;-52
2022/05/26 10:01:16;;;;;;;0.98;0.68;;;29.00;4.30;;;;;;5031711;28;20083;-53
2022/05/26 10:04:41;;;;;;;1.08;0.80;;;28.00;6.00;;;;;;5052682;28;20161;-53
2022/05/26 10:08:22;;;;;;;1.05;0.60;;;26.50;7.90;;;;;;5032810;28;20365;-53
2022/05/26 10:11:30;;;;;;;0.80;0.70;;;25.00;10.40;;;;;;5061106;28;20044;-50
2022/05/26 10:15:10;;;;;;;2.67;0.70;;;23.60;12.30;;;;;;5048958;28;20045;-50
2022/05/26 10:18:36;;;;;;;2.47;0.90;;;22.80;13.70;;;;;;5047659;28;20032;-51
2022/05/26 10:21:27;;;;;;;1.63;0.77;;;22.30;15.70;;;;;;5065500;28;20040;-52
2022/05/26 10:24:06;;;;;;;2.30;1.00;;;21.70;17.10;;;;;;5048754;28;20267;-52
2022/05/26 10:26:47;;;;;;;2.05;0.70;;;21.30;18.70;;;;;;5025378;28;20049;-53
2022/05/26 10:29:45;;;;;;;1.15;0.50;;;21.40;17.40;;;;;;5023892;28;20077;-50
2022/05/26 10:32:45;;;;;;;1.83;0.80;;;21.80;18.60;;;;;;5039292;28;20140;-51
2022/05/26 10:35:27;;;;;;;1.25;0.70;;;21.90;19.30;;;;;;5025563;28;20034;-52
2022/05/26 10:38:14;;;;;;;3.10;0.88;;;22.20;18.30;;;;;;5053790;28;20109;-50
2022/05/26 10:40:54;;;;;;;1.17;0.52;;;22.50;17.50;;;;;;5042909;28;20055;-50
2022/05/26 10:43:25;;;;;;;5.15;1.25;;;22.50;17.50;;;;;;5046311;28;20029;-52
2022/05/26 10:45:54;;;;;;;2.50;1.05;;;22.40;16.90;;;;;;5026758;28;20065;-51
2022/05/26 10:48:29;;;;;;;0.90;0.70;;;22.30;16.90;;;;;;5065150;28;20024;-62
2022/05/26 10:51:05;;;;;;;2.38;0.70;;;22.10;17.00;;;;;;5038831;28;20043;-61
2022/05/26 10:53:47;;;;;;;2.30;0.75;;;21.80;17.20;;;;;;5058041;28;20040;-61
2022/05/26 10:56:46;;;;;;;1.80;0.80;;;21.60;17.50;;;;;;5035418;28;20108;-61
2022/05/26 10:59:33;;;;;;;2.90;0.82;;;21.50;19.20;;;;;;5038833;28;20515;-61
2022/05/26 11:02:16;;;;;;;4.47;0.90;;;21.70;18.90;;;;;;5034040;28;20498;-61
2022/05/26 11:04:41;;;;;;;1.70;0.90;;;21.60;18.70;;;;;;5034297;28;20036;-61
2022/05/26 11:07:20;;;;;;;3.45;1.10;;;21.80;17.90;;;;;;5048638;28;20021;-62
2022/05/26 11:09:56;;;;;;;3.00;1.05;;;21.70;18.70;;;;;;5043154;28;20029;-60
2022/05/26 11:12:46;;;;;;;3.25;0.82;;;21.70;19.30;;;;;;5071028;28;20500;-60
2022/05/26 11:18:37;;;;;;;1.55;0.73;;;21.80;18.90;;;;;;5026752;28;20450;-60
2022/05/26 11:21:03;;;;;;;4.72;1.00;;;21.90;18.80;;;;;;5029274;28;20515;-59
2022/05/26 11:23:35;;;;;;;1.23;0.90;;;22.20;18.10;;;;;;5031001;28;20061;-59
2022/05/26 11:26:11;;;;;;;1.35;1.10;;;22.40;17.60;;;;;;5029058;28;20069;-60
2022/05/26 11:29:16;;;;;;;1.60;0.82;;;22.70;17.50;;;;;;5032993;28;20044;-59
2022/05/26 11:37:35;;;;;;;1.25;1.05;;;23.50;15.20;;;;;;5040039;28;20060;-60
2022/05/26 11:40:10;;;;;;;1.60;1.02;;;23.60;14.80;;;;;;5027159;28;20726;-59
2022/05/26 11:42:38;;;;;;;1.73;0.90;;;23.80;14.70;;;;;;5041586;28;20033;-59
2022/05/26 11:45:26;;;;;;;1.30;0.93;;;24.00;14.00;;;;;;5053754;28;20045;-59
2022/05/26 11:48:26;;;;;;;2.67;1.02;;;24.30;13.10;;;;;;5040929;28;20469;-59
2022/05/26 11:50:54;;;;;;;2.35;1.60;;;24.40;12.90;;;;;;5032545;28;20036;-59
2022/05/26 11:53:35;;;;;;;2.78;1.55;;;24.40;12.70;;;;;;5051239;28;20090;-59
2022/05/26 11:56:20;;;;;;;2.45;1.13;;;24.40;11.70;;;;;;5029374;28;20033;-59
2022/05/26 11:58:47;;;;;;;2.72;1.00;;;24.70;12.00;;;;;;5031733;28;20473;-59
2022/05/26 12:01:22;;;;;;;1.92;1.10;;;24.50;11.80;;;;;;5063851;28;20222;-59
2022/05/26 12:03:53;;;;;;;4.93;1.40;;;24.40;12.00;;;;;;5050797;28;20025;-60
2022/05/26 12:06:37;;;;;;;1.75;1.00;;;24.20;12.60;;;;;;5070387;28;20518;-59
2022/05/26 12:09:21;;;;;;;2.70;1.17;;;24.00;13.00;;;;;;5045665;28;20436;-59
2022/05/26 12:12:03;;;;;;;3.03;1.10;;;23.80;13.30;;;;;;5048138;28;20044;-59
2022/05/26 12:14:45;;;;;;;1.67;0.90;;;23.60;13.20;;;;;;5035465;28;20572;-59
2022/05/26 12:17:40;;;;;;;1.35;1.00;;;23.20;13.70;;;;;;5027886;28;20045;-59
2022/05/26 12:20:12;;;;;;;3.30;1.20;;;22.90;14.70;;;;;;5028101;28;20021;-60
2022/05/26 12:23:03;;;;;;;2.45;1.23;;;22.60;15.10;;;;;;5064087;28;20032;-59
2022/05/26 12:25:37;;;;;;;4.53;1.23;;;22.20;15.80;;;;;;5064476;28;20048;-59
2022/05/26 12:28:14;;;;;;;5.15;1.15;;;21.80;16.10;;;;;;5041533;28;20618;-59
2022/05/26 12:30:45;;;;;;;2.53;1.35;;;21.80;17.20;;;;;;5068038;28;20047;-60
2022/05/26 12:33:47;;;;;;;3.63;1.38;;;22.00;16.40;;;;;;5050875;28;20068;-60
2022/05/26 12:36:43;;;;;;;3.47;1.13;;;22.20;15.90;;;;;;5027745;28;20041;-60
2022/05/26 12:39:43;;;;;;;2.17;1.30;;;22.10;16.10;;;;;;5040478;28;20037;-60
2022/05/26 12:42:43;;;;;;;4.30;1.10;;;21.90;15.40;;;;;;5033261;28;20041;-60
2022/05/26 12:45:15;;;;;;;3.10;1.10;;;22.00;15.60;;;;;;5029257;28;20108;-60
2022/05/26 12:48:05;;;;;;;3.45;1.20;;;22.00;15.60;;;;;;5055042;28;20751;-60
2022/05/26 12:50:39;;;;;;;5.20;1.50;;;22.20;14.40;;;;;;5059733;28;20499;-60
2022/05/26 12:53:17;;;;;;;5.32;1.23;;;22.40;13.50;;;;;;5037165;28;20060;-60
2022/05/26 12:55:58;;;;;;;2.25;1.23;;;22.50;13.70;;;;;;5045486;28;20090;-60
2022/05/26 12:58:31;;;;;;;4.50;1.23;;;22.60;13.30;;;;;;5041704;28;20040;-59
2022/05/26 13:00:57;;;;;;;3.20;1.15;;;22.60;13.10;;;;;;5019805;28;20048;-60
2022/05/26 13:04:23;;;;;;;5.07;1.65;;;22.70;12.90;;;;;;5045890;28;20060;-60
2022/05/26 13:07:48;;;;;;;2.65;1.10;;;22.90;12.90;;;;;;5044012;28;20047;-61
2022/05/26 13:11:13;;;;;;;3.50;0.90;;;23.00;12.10;;;;;;5037202;28;20033;-60
2022/05/26 13:14:38;;;;;;;3.90;1.20;;;23.10;10.60;;;;;;5048246;28;20041;-60
2022/05/26 13:18:06;;;;;;;4.00;1.17;;;23.00;10.90;;;;;;5052159;28;20047;-59
2022/05/26 13:21:35;;;;;;;4.80;1.17;;;22.80;10.20;;;;;;5053321;28;20034;-60
2022/05/26 13:25:00;;;;;;;3.35;1.48;;;22.60;10.40;;;;;;5059216;28;20036;-60
2022/05/26 13:28:25;;;;;;;2.80;1.10;;;22.30;11.90;;;;;;5059266;28;20510;-60
2022/05/26 13:35:15;;;;;;;4.50;1.20;;;22.60;12.10;;;;;;5056835;28;20165;-60
2022/05/26 13:39:01;;;;;;;2.45;1.25;;;22.40;11.80;;;;;;5061713;28;20056;-59
2022/05/26 13:42:27;;;;;;;3.22;1.10;;;21.90;12.70;;;;;;5058423;28;20036;-60
2022/05/26 13:45:55;;;;;;;3.83;1.30;;;21.40;14.20;;;;;;5055606;28;20450;-60
2022/05/26 13:49:21;;;;;;;9.27;1.80;;;21.00;15.40;;;;;;5023967;28;20045;-59
2022/05/26 13:52:46;;;;;;;3.72;1.25;;;20.60;16.30;;;;;;5057141;28;20086;-60
2022/05/26 13:55:20;;;;;;;1.52;1.13;;;20.60;16.60;;;;;;5037501;28;20033;-60
2022/05/26 13:57:55;;;;;;;4.00;1.33;;;21.10;16.00;;;;;;5063447;28;20055;-60
2022/05/26 14:00:28;;;;;;;3.65;1.27;;;21.40;14.40;;;;;;5051006;28;20579;-59
2022/05/26 14:03:01;;;;;;;2.80;1.15;;;21.30;14.00;;;;;;5038502;28;20847;-59
2022/05/26 14:05:29;;;;;;;7.35;1.27;;;21.20;13.80;;;;;;5065825;28;20384;-60
2022/05/26 14:07:58;;;;;;;3.38;1.20;;;21.20;13.20;;;;;;5044717;28;20033;-59
2022/05/26 14:10:36;;;;;;;3.72;1.13;;;21.40;13.30;;;;;;5065393;28;20025;-60
2022/05/26 14:13:24;;;;;;;3.60;1.20;;;21.60;13.10;;;;;;5045916;28;20049;-60
2022/05/26 14:16:16;;;;;;;2.92;1.33;;;21.70;12.90;;;;;;5065208;28;20027;-60
2022/05/26 14:19:00;;;;;;;2.20;1.10;;;22.10;12.40;;;;;;5038624;28;20024;-60
2022/05/26 14:21:29;;;;;;;3.78;1.80;;;22.30;11.00;;;;;;5045234;28;20091;-60
2022/05/26 14:23:58;;;;;;;4.22;1.10;;;22.40;10.90;;;;;;5058232;28;20567;-60
2022/05/26 14:26:29;;;;;;;3.08;1.35;;;22.40;10.00;;;;;;5028927;28;20061;-60
2022/05/26 14:28:54;;;;;;;3.97;1.60;;;22.30;10.20;;;;;;5025113;28;20034;-60
2022/05/26 14:31:23;;;;;;;3.20;1.55;;;22.10;9.80;;;;;;5035611;28;20594;-60
2022/05/26 14:34:04;;;;;;;2.60;1.38;;;22.00;9.90;;;;;;5065455;28;20033;-60
2022/05/26 14:37:10;;;;;;;3.55;1.30;;;21.90;10.30;;;;;;5038432;28;20028;-60
2022/05/26 14:40:35;;;;;;;4.35;2.20;;;21.60;11.20;;;;;;5039026;28;20033;-60
2022/05/26 14:44:01;;;;;;;5.60;1.80;;;21.40;12.00;;;;;;5048746;28;20033;-60
2022/05/26 14:47:26;;;;;;;4.55;1.85;;;21.60;11.70;;;;;;5053701;28;20337;-60
2022/05/26 14:50:51;;;;;;;3.60;2.20;;;21.90;11.60;;;;;;5059812;28;20032;-60
2022/05/26 14:57:40;;;;;;;10.88;7.40;;;21.60;11.50;;;;;;5035133;28;20044;-60
2022/05/26 15:01:06;;;;;;;53.00;22.35;;;21.60;11.60;;;;;;5020951;28;20115;-60
2022/05/26 15:04:31;;;;;;;42.67;25.10;;;21.60;11.80;;;;;;5053815;28;20033;-60
2022/05/26 15:07:57;;;;;;;16.33;7.53;;;21.60;11.80;;;;;;5030004;28;20506;-60
2022/05/26 15:11:22;;;;;;;10.45;4.85;;;21.70;12.10;;;;;;5057030;28;20043;-61
2022/05/26 15:14:47;;;;;;;6.30;3.15;;;21.50;11.80;;;;;;5036588;28;20063;-61
2022/05/26 15:18:13;;;;;;;6.65;2.00;;;21.50;12.30;;;;;;5053789;28;20037;-61
2022/05/26 15:21:38;;;;;;;18.02;12.48;;;21.60;11.90;;;;;;5035415;28;20041;-61
2022/05/26 15:25:03;;;;;;;54.05;38.45;;;21.60;11.40;;;;;;5053562;28;20408;-61
2022/05/26 15:28:29;;;;;;;59.33;43.97;;;21.60;11.70;;;;;;5045246;28;20052;-61
2022/05/26 15:31:54;;;;;;;187.02;134.10;;;21.40;12.00;;;;;;5035901;28;20558;-60
2022/05/26 15:35:19;;;;;;;96.97;72.60;;;21.40;12.30;;;;;;5053406;28;20036;-61
2022/05/26 15:38:45;;;;;;;58.40;41.97;;;21.40;12.70;;;;;;5053905;28;20044;-61
2022/05/26 15:42:10;;;;;;;26.80;17.30;;;21.50;12.30;;;;;;5036177;28;20315;-61
2022/05/26 15:45:35;;;;;;;13.20;9.68;;;21.50;12.40;;;;;;5051805;28;20048;-61
2022/05/26 15:49:02;;;;;;;7.57;5.00;;;21.40;12.40;;;;;;5041928;28;20155;-62
2022/05/26 15:52:28;;;;;;;7.88;4.10;;;21.30;12.40;;;;;;5048317;28;20037;-61
2022/05/26 15:55:52;;;;;;;6.72;3.40;;;21.30;12.50;;;;;;5052428;28;20523;-61
2022/05/26 15:59:20;;;;;;;11.27;6.20;;;21.30;12.20;;;;;;5057462;28;20040;-61
2022/05/26 16:02:25;;;;;;;;;;;21.30;12.00;;;;;;5027922;28;20083;-61
2022/05/26 16:05:51;;;;;;;11.18;7.97;;;21.20;12.50;;;;;;5043389;28;20387;-61
2022/05/26 16:08:56;;;;;;;29.67;18.35;;;21.00;12.40;;;;;;5050621;28;20039;-61
2022/05/26 16:11:22;;;;;;;15.68;11.50;;;20.90;12.90;;;;;;5029391;28;20037;-61
2022/05/26 16:13:48;;;;;;;11.15;7.22;;;20.80;12.90;;;;;;5067061;28;20229;-61
2022/05/26 16:16:14;;;;;;;26.52;18.60;;;20.70;12.90;;;;;;5031665;28;20029;-60
2022/05/26 16:18:40;;;;;;;28.67;19.85;;;20.60;12.80;;;;;;5031080;28;20028;-61
2022/05/26 16:21:46;;;;;;;112.47;73.90;;;20.60;12.80;;;;;;5044977;28;20244;-61
2022/05/26 16:25:11;;;;;;;39.42;26.23;;;20.70;13.10;;;;;;5042605;28;20396;-61
2022/05/26 16:28:37;;;;;;;39.17;28.42;;;20.70;13.00;;;;;;5036832;28;20111;-61